Time,TemperatureF,DewpointF,PressureIn,WindDirection,WindDirectionDegrees,WindSpeedMPH,WindSpeedGustMPH,Humidity,HourlyPrecipIn,Conditions,Clouds,dailyrainin,SoftwareType,DateUTC
2013-10-20 00:01:00,59.2,54.7,29.69,West,270,2.3,2.3,85,0.00,CLR,,0.00,WeatherDisplay:10.37,2013-10-20 04:01:00,
2013-10-20 00:02:00,59.2,54.7,29.69,West,270,1.2,1.3,85,0.00,CLR,,0.00,WeatherDisplay:10.37,2013-10-20 04:02:00,
2013-10-20 00:06:00,58.8,54.3,29.69,West,270,1.3,1.3,85,0.00,CLR,,0.00,WeatherDisplay:10.37,2013-10-20 04:06:00,
2013-10-20 00:07:00,58.8,54.3,29.69,West,270,1.2,1.3,85,0.00,CLR,,0.00,WeatherDisplay:10.37,2013-10-20 04:07:00,
2013-10-20 00:08:00,58.8,54.0,29.69,West,270,1.3,1.3,84,0.00,CLR,,0.00,WeatherDisplay:10.37,2013-10-20 04:08:00,
2013-10-20 00:14:00,58.6,54.1,29.70,SW,225,2.3,2.3,85,0.00,CLR,,0.00,WeatherDisplay:10.37,2013-10-20 04:14:00,
2013-10-20 00:19:00,58.6,54.1,29.70,SW,225,2.3,2.3,85,0.00,-RA,,0.00,WeatherDisplay:10.37,2013-10-20 04:19:00,
2013-10-20 00:24:00,58.6,54.1,29.70,West,270,3.5,3.5,85,0.00,-RA,,0.00,WeatherDisplay:10.37,2013-10-20 04:24:00,
2013-10-20 00:29:00,58.5,54.0,29.70,WNW,292,1.6,1.6,85,0.00,-RA,,0.00,WeatherDisplay:10.37,2013-10-20 04:29:00,
2013-10-20 00:34:00,58.3,53.8,29.70,West,270,2.3,2.3,85,0.00,-RA,,0.00,WeatherDisplay:10.37,2013-10-20 04:34:00,
2013-10-20 00:39:00,58.5,54.0,29.70,West,270,1.2,1.3,85,0.00,-RA,,0.00,WeatherDisplay:10.37,2013-10-20 04:39:00,
2013-10-20 00:44:00,58.3,53.8,29.70,South,180,0.0,0.5,85,0.00,-RA,,0.00,WeatherDisplay:10.37,2013-10-20 04:44:00,
2013-10-20 00:49:00,58.1,53.3,29.70,SSW,202,1.2,1.2,84,0.00,-RA,,0.00,WeatherDisplay:10.37,2013-10-20 04:49:00,
2013-10-20 00:54:00,57.9,53.4,29.70,WSW,248,0.0,0.4,85,0.00,-RA,,0.00,WeatherDisplay:10.37,2013-10-20 04:54:00,
2013-10-20 00:59:00,58.1,53.6,29.70,SW,225,0.0,0.1,85,0.00,-RA,,0.00,WeatherDisplay:10.37,2013-10-20 04:59:00,
2013-10-20 01:04:00,57.7,53.3,29.70,South,180,1.5,1.5,85,0.00,-RA,,0.00,WeatherDisplay:10.37,2013-10-20 05:04:00,
2013-10-20 01:09:00,57.7,53.3,29.70,WSW,248,1.2,1.2,85,0.00,-RA,,0.00,WeatherDisplay:10.37,2013-10-20 05:09:00,
2013-10-20 01:14:00,57.6,53.1,29.71,SSW,202,2.3,2.3,85,0.00,-RA,,0.00,WeatherDisplay:10.37,2013-10-20 05:14:00,
2013-10-20 01:19:00,57.7,53.3,29.71,WNW,292,0.0,0.4,85,0.00,-RA,,0.00,WeatherDisplay:10.37,2013-10-20 05:19:00,
2013-10-20 01:24:00,57.6,53.1,29.71,WSW,248,0.0,0.1,85,0.00,-RA,,0.00,WeatherDisplay:10.37,2013-10-20 05:24:00,
2013-10-20 01:29:00,57.4,52.9,29.71,West,270,2.3,2.3,85,0.00,-RA,,0.00,WeatherDisplay:10.37,2013-10-20 05:29:00,
2013-10-20 01:34:00,57.2,52.7,29.70,West,270,2.3,2.3,85,0.00,-RA,,0.00,WeatherDisplay:10.37,2013-10-20 05:34:00,
2013-10-20 01:39:00,57.2,52.4,29.70,WNW,292,1.5,1.5,84,0.00,-RA,,0.00,WeatherDisplay:10.37,2013-10-20 05:39:00,
2013-10-20 01:44:00,57.2,52.4,29.70,West,270,1.6,1.6,84,0.00,-RA,,0.00,WeatherDisplay:10.37,2013-10-20 05:44:00,
2013-10-20 01:49:00,57.0,52.2,29.70,WNW,292,1.3,1.3,84,0.00,-RA,,0.00,WeatherDisplay:10.37,2013-10-20 05:49:00,
2013-10-20 01:54:00,57.0,52.2,29.71,SW,225,1.3,1.3,84,0.00,-RA,,0.00,WeatherDisplay:10.37,2013-10-20 05:54:00,
2013-10-20 01:59:00,57.0,52.2,29.71,West,270,0.0,0.4,84,0.00,-RA,,0.00,WeatherDisplay:10.37,2013-10-20 05:59:00,
2013-10-20 02:04:00,56.7,51.9,29.71,SSW,202,0.0,0.3,84,0.00,-RA,,0.00,WeatherDisplay:10.37,2013-10-20 06:04:00,
2013-10-20 02:09:00,56.7,51.9,29.71,WNW,292,1.4,1.4,84,0.00,-RA,,0.00,WeatherDisplay:10.37,2013-10-20 06:09:00,
2013-10-20 02:14:00,56.5,51.7,29.72,West,270,0.0,0.1,84,0.00,-RA,,0.00,WeatherDisplay:10.37,2013-10-20 06:14:00,
2013-10-20 02:19:00,56.5,51.7,29.72,NW,315,0.0,0.1,84,0.00,-RA,,0.00,WeatherDisplay:10.37,2013-10-20 06:19:00,
2013-10-20 02:24:00,56.5,51.7,29.72,West,270,0.0,0.0,84,0.00,-RA,,0.00,WeatherDisplay:10.37,2013-10-20 06:24:00,
2013-10-20 02:29:00,56.3,51.5,29.72,NW,315,0.0,0.1,84,0.00,-RA,,0.00,WeatherDisplay:10.37,2013-10-20 06:29:00,
2013-10-20 02:34:00,56.3,51.5,29.72,NW,315,3.5,3.5,84,0.00,-RA,,0.00,WeatherDisplay:10.37,2013-10-20 06:34:00,
2013-10-20 02:39:00,56.3,51.5,29.72,West,270,3.5,3.5,84,0.00,-RA,,0.00,WeatherDisplay:10.37,2013-10-20 06:39:00,
2013-10-20 02:44:00,56.3,50.9,29.72,WNW,292,5.8,5.8,82,0.00,-RA,,0.00,WeatherDisplay:10.37,2013-10-20 06:44:00,
2013-10-20 02:49:00,55.9,50.2,29.72,NW,315,4.7,4.7,81,0.00,-RA,,0.00,WeatherDisplay:10.37,2013-10-20 06:49:00,
2013-10-20 02:54:00,55.8,49.7,29.73,North,0,4.6,4.6,80,0.00,-RA,,0.00,WeatherDisplay:10.37,2013-10-20 06:54:00,
2013-10-20 02:59:00,55.8,49.0,29.73,WSW,248,6.9,6.9,78,0.00,-RA,,0.00,WeatherDisplay:10.37,2013-10-20 06:59:00,
2013-10-20 03:04:00,55.6,48.8,29.73,West,270,9.2,9.2,78,0.00,-RA,,0.00,WeatherDisplay:10.37,2013-10-20 07:04:00,
2013-10-20 03:09:00,55.4,48.3,29.73,West,270,9.6,9.6,77,0.00,-RA,,0.00,WeatherDisplay:10.37,2013-10-20 07:09:00,
2013-10-20 03:14:00,55.6,48.1,29.73,NW,315,6.1,6.1,76,0.00,-RA,,0.00,WeatherDisplay:10.37,2013-10-20 07:14:00,
2013-10-20 03:19:00,55.2,47.8,29.73,NW,315,5.8,5.8,76,0.00,-RA,,0.00,WeatherDisplay:10.37,2013-10-20 07:19:00,
2013-10-20 03:24:00,55.2,47.4,29.73,West,270,4.6,4.7,75,0.00,-RA,,0.00,WeatherDisplay:10.37,2013-10-20 07:24:00,
2013-10-20 03:29:00,55.2,47.4,29.73,West,270,3.5,3.5,75,0.00,-RA,,0.00,WeatherDisplay:10.37,2013-10-20 07:29:00,
2013-10-20 03:34:00,55.2,47.4,29.74,West,270,2.3,2.3,75,0.00,-RA,,0.00,WeatherDisplay:10.37,2013-10-20 07:34:00,
2013-10-20 03:39:00,55.2,47.8,29.74,NW,315,2.4,2.4,76,0.00,-RA,,0.00,WeatherDisplay:10.37,2013-10-20 07:39:00,
2013-10-20 03:44:00,55.0,47.3,29.74,WNW,292,2.3,2.3,75,0.00,-RA,,0.00,WeatherDisplay:10.37,2013-10-20 07:44:00,
2013-10-20 03:49:00,55.0,47.3,29.74,WNW,292,1.2,2.0,75,0.00,-RA,,0.00,WeatherDisplay:10.37,2013-10-20 07:49:00,
2013-10-20 03:54:00,54.9,47.1,29.74,NW,315,4.6,4.6,75,0.00,-RA,,0.00,WeatherDisplay:10.37,2013-10-20 07:54:00,
2013-10-20 03:59:00,54.9,47.1,29.74,WNW,292,5.8,5.8,75,0.00,-RA,,0.00,WeatherDisplay:10.37,2013-10-20 07:59:00,
2013-10-20 04:04:00,54.7,46.6,29.74,NW,315,3.5,3.5,74,0.00,-RA,,0.00,WeatherDisplay:10.37,2013-10-20 08:04:00,
2013-10-20 04:09:00,54.9,46.7,29.74,WNW,292,4.6,4.6,74,0.00,-RA,,0.00,WeatherDisplay:10.37,2013-10-20 08:09:00,
2013-10-20 04:14:00,54.7,46.6,29.75,West,270,4.6,4.6,74,0.00,-RA,,0.00,WeatherDisplay:10.37,2013-10-20 08:14:00,
2013-10-20 04:19:00,54.3,45.8,29.75,WNW,292,4.6,4.6,73,0.00,-RA,,0.00,WeatherDisplay:10.37,2013-10-20 08:19:00,
2013-10-20 04:24:00,54.3,45.8,29.75,West,270,5.8,5.8,73,0.00,-RA,,0.00,WeatherDisplay:10.37,2013-10-20 08:24:00,
2013-10-20 04:29:00,54.3,45.8,29.75,WNW,292,3.5,3.5,73,0.00,-RA,,0.00,WeatherDisplay:10.37,2013-10-20 08:29:00,
2013-10-20 04:34:00,54.1,45.7,29.76,WNW,292,2.3,2.5,73,0.00,-RA,,0.00,WeatherDisplay:10.37,2013-10-20 08:34:00,
2013-10-20 04:39:00,54.1,45.7,29.76,WNW,292,2.3,2.5,73,0.00,-RA,,0.00,WeatherDisplay:10.37,2013-10-20 08:39:00,
2013-10-20 04:44:00,54.1,45.7,29.76,West,270,3.5,3.5,73,0.00,-RA,,0.00,WeatherDisplay:10.37,2013-10-20 08:44:00,
2013-10-20 04:49:00,53.8,45.0,29.76,WSW,248,4.6,4.6,72,0.00,-RA,,0.00,WeatherDisplay:10.37,2013-10-20 08:49:00,
2013-10-20 04:54:00,53.8,45.0,29.76,NW,315,4.6,4.6,72,0.00,-RA,,0.00,WeatherDisplay:10.37,2013-10-20 08:54:00,
2013-10-20 04:59:00,53.8,45.0,29.76,WNW,292,3.5,3.5,72,0.00,-RA,,0.00,WeatherDisplay:10.37,2013-10-20 08:59:00,
2013-10-20 05:04:00,53.6,44.8,29.76,WNW,292,3.5,3.5,72,0.00,-RA,,0.00,WeatherDisplay:10.37,2013-10-20 09:04:00,
2013-10-20 05:09:00,53.6,44.8,29.76,West,270,2.3,2.3,72,0.00,-RA,,0.00,WeatherDisplay:10.37,2013-10-20 09:09:00,
2013-10-20 05:14:00,53.4,44.6,29.77,WSW,248,2.3,2.4,72,0.00,-RA,,0.00,WeatherDisplay:10.37,2013-10-20 09:14:00,
2013-10-20 05:19:00,53.4,44.6,29.77,WNW,292,3.5,3.5,72,0.00,-RA,,0.00,WeatherDisplay:10.37,2013-10-20 09:19:00,
2013-10-20 05:24:00,53.4,44.6,29.77,NW,315,5.8,5.8,72,0.00,-RA,,0.00,WeatherDisplay:10.37,2013-10-20 09:24:00,
2013-10-20 05:29:00,53.4,44.6,29.77,West,270,3.5,3.5,72,0.00,-RA,,0.00,WeatherDisplay:10.37,2013-10-20 09:29:00,
2013-10-20 05:34:00,53.1,44.3,29.78,NW,315,3.5,3.5,72,0.00,-RA,,0.00,WeatherDisplay:10.37,2013-10-20 09:34:00,
2013-10-20 05:39:00,52.9,43.7,29.78,SW,225,3.5,3.5,71,0.00,-RA,,0.00,WeatherDisplay:10.37,2013-10-20 09:39:00,
2013-10-20 05:44:00,53.1,44.3,29.78,West,270,3.5,3.5,72,0.00,-RA,,0.00,WeatherDisplay:10.37,2013-10-20 09:44:00,
2013-10-20 05:49:00,52.9,44.1,29.78,NW,315,2.3,2.3,72,0.00,-RA,,0.00,WeatherDisplay:10.37,2013-10-20 09:49:00,
2013-10-20 05:54:00,52.9,44.1,29.79,NW,315,2.3,2.3,72,0.00,-RA,,0.00,WeatherDisplay:10.37,2013-10-20 09:54:00,
2013-10-20 05:59:00,52.7,43.9,29.79,WNW,292,3.5,3.5,72,0.00,-RA,,0.00,WeatherDisplay:10.37,2013-10-20 09:59:00,
2013-10-20 06:04:00,52.7,43.9,29.79,West,270,2.3,2.3,72,0.00,-RA,,0.00,WeatherDisplay:10.37,2013-10-20 10:04:00,
2013-10-20 06:09:00,52.7,43.6,29.79,WNW,292,2.3,2.3,71,0.00,-RA,,0.00,WeatherDisplay:10.37,2013-10-20 10:09:00,
2013-10-20 06:14:00,52.5,43.8,29.80,West,270,3.5,3.5,72,0.00,-RA,,0.00,WeatherDisplay:10.37,2013-10-20 10:14:00,
2013-10-20 06:19:00,52.3,43.6,29.80,West,270,3.5,3.5,72,0.00,-RA,,0.00,WeatherDisplay:10.37,2013-10-20 10:19:00,
2013-10-20 06:24:00,52.2,43.4,29.80,WSW,248,3.5,3.5,72,0.00,-RA,,0.00,WeatherDisplay:10.37,2013-10-20 10:24:00,
2013-10-20 06:29:00,52.2,43.4,29.80,SW,225,2.3,2.3,72,0.00,-RA,,0.00,WeatherDisplay:10.37,2013-10-20 10:29:00,
2013-10-20 06:34:00,52.2,43.4,29.81,West,270,2.3,2.3,72,0.00,-RA,,0.00,WeatherDisplay:10.37,2013-10-20 10:34:00,
2013-10-20 06:39:00,52.2,43.4,29.81,WSW,248,2.3,2.3,72,0.00,-RA,,0.00,WeatherDisplay:10.37,2013-10-20 10:39:00,
2013-10-20 06:44:00,52.2,43.4,29.81,North,0,2.5,2.5,72,0.00,-RA,,0.00,WeatherDisplay:10.37,2013-10-20 10:44:00,
2013-10-20 06:49:00,52.0,43.6,29.81,NW,315,2.2,2.2,73,0.00,-RA,,0.00,WeatherDisplay:10.37,2013-10-20 10:49:00,
2013-10-20 06:54:00,51.8,43.4,29.82,WSW,248,1.3,1.3,73,0.00,-RA,,0.00,WeatherDisplay:10.37,2013-10-20 10:54:00,
2013-10-20 06:59:00,52.0,43.6,29.82,SSW,202,0.0,0.5,73,0.00,-RA,,0.00,WeatherDisplay:10.37,2013-10-20 10:59:00,
2013-10-20 07:04:00,51.6,43.2,29.82,SSW,202,0.0,0.1,73,0.00,-RA,,0.00,WeatherDisplay:10.37,2013-10-20 11:04:00,
2013-10-20 07:09:00,51.4,43.1,29.82,South,180,1.5,1.5,73,0.00,-RA,,0.00,WeatherDisplay:10.37,2013-10-20 11:09:00,
2013-10-20 07:14:00,51.3,42.9,29.83,WSW,248,0.0,0.3,73,0.00,-RA,,0.00,WeatherDisplay:10.37,2013-10-20 11:14:00,
2013-10-20 07:19:00,51.1,43.1,29.83,West,270,1.2,1.2,74,0.00,-RA,,0.00,WeatherDisplay:10.37,2013-10-20 11:19:00,
2013-10-20 07:24:00,51.1,43.1,29.83,WSW,248,0.0,0.3,74,0.00,-RA,,0.00,WeatherDisplay:10.37,2013-10-20 11:24:00,
2013-10-20 07:30:00,51.3,43.3,29.83,SSW,202,0.0,0.1,74,0.00,-RA,,0.00,WeatherDisplay:10.37,2013-10-20 11:30:00,
2013-10-20 07:35:00,50.9,42.6,29.84,SW,225,2.3,2.3,73,0.00,-RA,,0.00,WeatherDisplay:10.37,2013-10-20 11:35:00,
2013-10-20 07:40:00,50.7,42.4,29.84,South,180,2.3,2.3,73,0.00,-RA,,0.00,WeatherDisplay:10.37,2013-10-20 11:40:00,
2013-10-20 07:45:00,50.7,42.7,29.84,SW,225,0.0,0.6,74,0.00,-RA,,0.00,WeatherDisplay:10.37,2013-10-20 11:45:00,
2013-10-20 07:50:00,50.7,42.7,29.84,SSW,202,0.0,0.4,74,0.00,-RA,,0.00,WeatherDisplay:10.37,2013-10-20 11:50:00,
2013-10-20 07:55:00,50.7,43.1,29.85,WSW,248,1.3,1.3,75,0.00,-RA,,0.00,WeatherDisplay:10.37,2013-10-20 11:55:00,
2013-10-20 08:00:00,50.9,43.3,29.85,WNW,292,2.3,2.3,75,0.00,-RA,,0.00,WeatherDisplay:10.37,2013-10-20 12:00:00,
2013-10-20 08:05:00,50.9,43.3,29.85,WSW,248,1.3,1.3,75,0.00,-RA,,0.00,WeatherDisplay:10.37,2013-10-20 12:05:00,
2013-10-20 08:10:00,51.3,43.3,29.85,WSW,248,2.3,2.3,74,0.00,-RA,,0.00,WeatherDisplay:10.37,2013-10-20 12:10:00,
2013-10-20 08:15:00,51.3,42.9,29.86,SW,225,2.3,2.3,73,0.00,-RA,,0.00,WeatherDisplay:10.37,2013-10-20 12:15:00,
2013-10-20 08:20:00,51.8,43.4,29.86,West,270,2.3,2.3,73,0.00,-RA,,0.00,WeatherDisplay:10.37,2013-10-20 12:20:00,
2013-10-20 08:25:00,52.3,43.9,29.86,West,270,2.3,2.3,73,0.00,-RA,,0.00,WeatherDisplay:10.37,2013-10-20 12:25:00,
2013-10-20 08:30:00,52.5,43.8,29.86,WSW,248,2.4,2.4,72,0.00,-RA,,0.00,WeatherDisplay:10.37,2013-10-20 12:30:00,
2013-10-20 08:35:00,53.1,43.9,29.87,West,270,3.5,3.5,71,0.00,-RA,,0.00,WeatherDisplay:10.37,2013-10-20 12:35:00,
2013-10-20 08:40:00,53.2,44.1,29.87,WSW,248,2.3,2.3,71,0.00,-RA,,0.00,WeatherDisplay:10.37,2013-10-20 12:40:00,
2013-10-20 08:45:00,53.4,43.9,29.87,WSW,248,2.4,2.4,70,0.00,-RA,,0.00,WeatherDisplay:10.37,2013-10-20 12:45:00,
2013-10-20 08:50:00,53.8,43.8,29.87,SW,225,2.3,2.3,69,0.00,-RA,,0.00,WeatherDisplay:10.37,2013-10-20 12:50:00,
2013-10-20 08:55:00,54.5,44.5,29.88,NW,315,2.3,2.3,69,0.00,-RA,,0.00,WeatherDisplay:10.37,2013-10-20 12:55:00,
2013-10-20 09:00:00,55.0,45.1,29.88,West,270,3.5,3.5,69,0.00,-RA,,0.00,WeatherDisplay:10.37,2013-10-20 13:00:00,
2013-10-20 09:05:00,55.6,44.8,29.88,NNW,338,2.8,2.8,67,0.00,-RA,,0.00,WeatherDisplay:10.37,2013-10-20 13:05:00,
2013-10-20 09:10:00,56.3,45.5,29.88,NW,315,2.5,2.5,67,0.00,-RA,,0.00,WeatherDisplay:10.37,2013-10-20 13:10:00,
2013-10-20 09:15:00,56.3,45.5,29.88,WSW,248,2.3,2.3,67,0.00,-RA,,0.00,WeatherDisplay:10.37,2013-10-20 13:15:00,
2013-10-20 09:20:00,56.3,44.7,29.88,NW,315,3.9,3.9,65,0.00,-RA,,0.00,WeatherDisplay:10.37,2013-10-20 13:20:00,
2013-10-20 09:25:00,56.3,44.7,29.88,West,270,5.8,5.8,65,0.00,-RA,,0.00,WeatherDisplay:10.37,2013-10-20 13:25:00,
2013-10-20 09:30:00,56.3,44.7,29.88,NW,315,4.0,4.0,65,0.00,-RA,,0.00,WeatherDisplay:10.37,2013-10-20 13:30:00,
2013-10-20 09:35:00,56.3,44.7,29.88,NW,315,5.8,5.8,65,0.00,-RA,,0.00,WeatherDisplay:10.37,2013-10-20 13:35:00,
2013-10-20 09:40:00,56.3,44.7,29.88,NW,315,4.6,4.6,65,0.00,-RA,,0.00,WeatherDisplay:10.37,2013-10-20 13:40:00,
2013-10-20 09:45:00,56.3,44.7,29.88,NNW,338,4.6,4.6,65,0.00,-RA,,0.00,WeatherDisplay:10.37,2013-10-20 13:45:00,
2013-10-20 09:50:00,56.3,44.7,29.89,NW,315,4.6,4.6,65,0.00,-RA,,0.00,WeatherDisplay:10.37,2013-10-20 13:50:00,
2013-10-20 09:55:00,56.3,44.7,29.89,SW,225,3.8,3.8,65,0.00,-RA,,0.00,WeatherDisplay:10.37,2013-10-20 13:55:00,
2013-10-20 10:00:00,56.3,44.7,29.89,SW,225,4.6,4.6,65,0.00,-RA,,0.00,WeatherDisplay:10.37,2013-10-20 14:00:00,
2013-10-20 10:05:00,56.3,44.7,29.89,SW,225,4.6,4.6,65,0.00,-RA,,0.00,WeatherDisplay:10.37,2013-10-20 14:05:00,
2013-10-20 10:10:00,56.3,44.7,29.89,NW,315,3.5,3.5,65,0.00,-RA,,0.00,WeatherDisplay:10.37,2013-10-20 14:10:00,
2013-10-20 10:15:00,56.3,44.7,29.89,NNW,338,5.8,5.8,65,0.00,-RA,,0.00,WeatherDisplay:10.37,2013-10-20 14:15:00,
2013-10-20 10:20:00,56.3,44.7,29.89,WNW,292,4.6,4.6,65,0.00,-RA,,0.00,WeatherDisplay:10.37,2013-10-20 14:20:00,
2013-10-20 10:25:00,56.3,44.7,29.89,NW,315,6.9,6.9,65,0.00,-RA,,0.00,WeatherDisplay:10.37,2013-10-20 14:25:00,
2013-10-20 10:30:00,56.3,44.7,29.89,NW,315,5.8,5.8,65,0.00,-RA,,0.00,WeatherDisplay:10.37,2013-10-20 14:30:00,
2013-10-20 10:35:00,56.3,44.7,29.89,WNW,292,3.5,3.5,65,0.00,-RA,,0.00,WeatherDisplay:10.37,2013-10-20 14:35:00,
2013-10-20 10:41:00,56.3,44.7,29.89,NNW,338,4.9,4.9,65,0.00,-RA,,0.00,WeatherDisplay:10.37,2013-10-20 14:41:00,
2013-10-20 10:46:00,58.6,43.9,29.89,WNW,292,3.8,3.8,58,0.00,-RA,,0.00,WeatherDisplay:10.37,2013-10-20 14:46:00,
2013-10-20 10:51:00,59.2,43.0,29.89,WNW,292,7.2,7.2,55,0.00,-RA,,0.00,WeatherDisplay:10.37,2013-10-20 14:51:00,
2013-10-20 10:56:00,59.2,43.5,29.89,NW,315,5.7,5.7,56,0.00,-RA,,0.00,WeatherDisplay:10.37,2013-10-20 14:56:00,
2013-10-20 11:01:00,59.9,43.7,29.89,SW,225,3.5,3.5,55,0.00,-RA,,0.00,WeatherDisplay:10.37,2013-10-20 15:01:00,
2013-10-20 11:06:00,60.8,44.0,29.89,NNW,338,5.8,5.8,54,0.00,-RA,,0.00,WeatherDisplay:10.37,2013-10-20 15:06:00,
2013-10-20 11:11:00,61.3,44.5,29.89,NW,315,3.5,3.5,54,0.00,-RA,,0.00,WeatherDisplay:10.37,2013-10-20 15:11:00,
2013-10-20 11:16:00,62.2,44.4,29.89,NW,315,6.9,6.9,52,0.00,-RA,,0.00,WeatherDisplay:10.37,2013-10-20 15:16:00,
2013-10-20 11:21:00,63.5,45.6,29.89,West,270,4.3,4.3,52,0.00,-RA,,0.00,WeatherDisplay:10.37,2013-10-20 15:21:00,
2013-10-20 11:26:00,64.2,45.7,29.89,NW,315,5.8,5.8,51,0.00,-RA,,0.00,WeatherDisplay:10.37,2013-10-20 15:26:00,
2013-10-20 11:31:00,65.1,45.5,29.90,NW,315,5.2,5.2,49,0.00,-RA,,0.00,WeatherDisplay:10.37,2013-10-20 15:31:00,
2013-10-20 11:36:00,65.7,46.5,29.90,NNW,338,6.9,6.9,50,0.00,-RA,,0.00,WeatherDisplay:10.37,2013-10-20 15:36:00,
2013-10-20 11:41:00,66.0,45.8,29.90,WSW,248,5.8,5.8,48,0.00,-RA,,0.00,WeatherDisplay:10.37,2013-10-20 15:41:00,
2013-10-20 11:46:00,66.0,45.2,29.90,WSW,248,9.2,9.2,47,0.00,-RA,,0.00,WeatherDisplay:10.37,2013-10-20 15:46:00,
2013-10-20 11:51:00,65.8,45.6,29.90,West,270,3.5,3.5,48,0.00,-RA,,0.00,WeatherDisplay:10.37,2013-10-20 15:51:00,
2013-10-20 11:56:00,66.4,45.5,29.90,WNW,292,4.6,4.6,47,0.00,-RA,,0.00,WeatherDisplay:10.37,2013-10-20 15:56:00,
2013-10-20 12:01:00,66.7,45.3,29.90,West,270,4.7,4.7,46,0.00,-RA,,0.00,WeatherDisplay:10.37,2013-10-20 16:01:00,
2013-10-20 12:06:00,66.9,46.0,29.90,WSW,248,3.5,3.5,47,0.00,-RA,,0.00,WeatherDisplay:10.37,2013-10-20 16:06:00,
2013-10-20 12:11:00,67.5,45.9,29.90,WSW,248,3.5,3.5,46,0.00,-RA,,0.00,WeatherDisplay:10.37,2013-10-20 16:11:00,
2013-10-20 12:16:00,66.9,45.5,29.90,NW,315,3.8,3.8,46,0.00,-RA,,0.00,WeatherDisplay:10.37,2013-10-20 16:16:00,
2013-10-20 12:21:00,67.3,45.8,29.90,NW,315,4.7,4.7,46,0.00,-RA,,0.00,WeatherDisplay:10.37,2013-10-20 16:21:00,
2013-10-20 12:26:00,66.7,45.3,29.90,WNW,292,6.9,6.9,46,0.00,-RA,,0.00,WeatherDisplay:10.37,2013-10-20 16:26:00,
2013-10-20 12:31:00,66.4,45.5,29.90,WNW,292,4.6,4.6,47,0.00,-RA,,0.00,WeatherDisplay:10.37,2013-10-20 16:31:00,
2013-10-20 12:36:00,66.0,44.6,29.90,NW,315,3.5,3.5,46,0.00,-RA,,0.00,WeatherDisplay:10.37,2013-10-20 16:36:00,
2013-10-20 12:37:00,66.0,44.1,29.90,WSW,248,3.5,3.5,45,0.00,-RA,,0.00,WeatherDisplay:10.37,2013-10-20 16:37:00,
2013-10-20 12:42:00,65.1,43.2,29.90,West,270,5.8,5.8,45,0.00,-RA,,0.00,WeatherDisplay:10.37,2013-10-20 16:42:00,
2013-10-20 12:47:00,65.3,44.0,29.90,WNW,292,4.6,4.6,46,0.00,-RA,,0.00,WeatherDisplay:10.37,2013-10-20 16:47:00,
2013-10-20 12:52:00,65.3,44.0,29.89,NW,315,3.5,3.5,46,0.00,-RA,,0.00,WeatherDisplay:10.37,2013-10-20 16:52:00,
2013-10-20 12:57:00,65.1,43.8,29.89,SW,225,2.3,2.8,46,0.00,-RA,,0.00,WeatherDisplay:10.37,2013-10-20 16:57:00,
2013-10-20 13:02:00,64.9,43.7,29.89,NNW,338,3.5,3.5,46,0.00,-RA,,0.00,WeatherDisplay:10.37,2013-10-20 17:02:00,
2013-10-20 13:07:00,64.8,42.9,29.89,NW,315,4.6,4.6,45,0.00,-RA,,0.00,WeatherDisplay:10.37,2013-10-20 17:07:00,
2013-10-20 13:12:00,64.4,42.6,29.89,West,270,3.5,3.5,45,0.00,-RA,,0.00,WeatherDisplay:10.37,2013-10-20 17:12:00,
2013-10-20 13:17:00,64.4,42.0,29.89,West,270,4.6,4.6,44,0.00,-RA,,0.00,WeatherDisplay:10.37,2013-10-20 17:17:00,
2013-10-20 13:22:00,64.9,43.1,29.89,NNW,338,6.9,6.9,45,0.00,-RA,,0.00,WeatherDisplay:10.37,2013-10-20 17:22:00,
2013-10-20 13:27:00,64.9,43.1,29.89,WNW,292,5.8,5.8,45,0.00,-RA,,0.00,WeatherDisplay:10.37,2013-10-20 17:27:00,
2013-10-20 13:32:00,64.9,43.1,29.88,NNW,338,3.5,4.0,45,0.00,-RA,,0.00,WeatherDisplay:10.37,2013-10-20 17:32:00,
2013-10-20 13:37:00,64.9,42.5,29.88,NNW,338,3.5,3.7,44,0.00,-RA,,0.00,WeatherDisplay:10.37,2013-10-20 17:37:00,
2013-10-20 13:42:00,64.9,42.5,29.88,NW,315,4.6,4.6,44,0.00,-RA,,0.00,WeatherDisplay:10.37,2013-10-20 17:42:00,
2013-10-20 13:47:00,64.9,42.5,29.88,NNW,338,5.8,5.8,44,0.00,-RA,,0.00,WeatherDisplay:10.37,2013-10-20 17:47:00,
2013-10-20 13:52:00,65.1,43.8,29.88,NW,315,3.5,4.2,46,0.00,-RA,,0.00,WeatherDisplay:10.37,2013-10-20 17:52:00,
2013-10-20 13:57:00,65.7,43.1,29.88,NW,315,5.8,5.8,44,0.00,-RA,,0.00,WeatherDisplay:10.37,2013-10-20 17:57:00,
2013-10-20 14:02:00,65.7,43.1,29.88,WSW,248,3.5,3.7,44,0.00,-RA,,0.00,WeatherDisplay:10.37,2013-10-20 18:02:00,
2013-10-20 14:07:00,66.0,43.5,29.88,NW,315,5.8,5.8,44,0.00,-RA,,0.00,WeatherDisplay:10.37,2013-10-20 18:07:00,
2013-10-20 14:12:00,66.7,44.1,29.88,NNE,22,6.9,6.9,44,0.00,-RA,,0.00,WeatherDisplay:10.37,2013-10-20 18:12:00,
2013-10-20 14:17:00,67.5,43.6,29.88,West,270,4.6,4.6,42,0.00,-RA,,0.00,WeatherDisplay:10.37,2013-10-20 18:17:00,
2013-10-20 14:22:00,67.8,43.2,29.88,NW,315,3.5,3.7,41,0.00,-RA,,0.00,WeatherDisplay:10.37,2013-10-20 18:22:00,
2013-10-20 14:27:00,68.2,42.9,29.88,WNW,292,4.6,4.6,40,0.00,-RA,,0.00,WeatherDisplay:10.37,2013-10-20 18:27:00,
2013-10-20 14:32:00,68.7,43.4,29.88,West,270,5.8,5.8,40,0.00,-RA,,0.00,WeatherDisplay:10.37,2013-10-20 18:32:00,
2013-10-20 14:37:00,69.3,43.2,29.88,NW,315,4.6,4.6,39,0.00,-RA,,0.00,WeatherDisplay:10.37,2013-10-20 18:37:00,
2013-10-20 14:42:00,70.0,41.8,29.88,West,270,3.5,3.5,36,0.00,-RA,,0.00,WeatherDisplay:10.37,2013-10-20 18:42:00,
2013-10-20 14:47:00,70.2,42.7,29.88,WNW,292,6.9,6.9,37,0.00,-RA,,0.00,WeatherDisplay:10.37,2013-10-20 18:47:00,
2013-10-20 14:52:00,70.7,44.5,29.88,NW,315,5.6,5.6,39,0.00,-RA,,0.00,WeatherDisplay:10.37,2013-10-20 18:52:00,
2013-10-20 14:57:00,70.2,42.7,29.88,NNE,22,4.6,4.6,37,0.00,-RA,,0.00,WeatherDisplay:10.37,2013-10-20 18:57:00,
2013-10-20 15:02:00,70.0,42.5,29.88,NW,315,3.8,3.8,37,0.00,-RA,,0.00,WeatherDisplay:10.37,2013-10-20 19:02:00,
2013-10-20 15:07:00,69.8,42.3,29.88,West,270,9.6,9.6,37,0.00,-RA,,0.00,WeatherDisplay:10.37,2013-10-20 19:07:00,
2013-10-20 15:12:00,69.8,42.3,29.88,West,270,9.6,9.6,37,0.00,-RA,,0.00,WeatherDisplay:10.37,2013-10-20 19:12:00,
2013-10-20 15:17:00,70.0,42.5,29.88,West,270,2.3,3.8,37,0.00,-RA,,0.00,WeatherDisplay:10.37,2013-10-20 19:17:00,
2013-10-20 15:22:00,70.0,41.8,29.88,West,270,0.0,2.9,36,0.00,-RA,,0.00,WeatherDisplay:10.37,2013-10-20 19:22:00,
2013-10-20 15:27:00,69.3,40.4,29.88,WSW,248,3.5,3.5,35,0.00,-RA,,0.00,WeatherDisplay:10.37,2013-10-20 19:27:00,
2013-10-20 15:32:00,68.5,39.8,29.88,WSW,248,2.3,3.2,35,0.00,-RA,,0.00,WeatherDisplay:10.37,2013-10-20 19:32:00,
2013-10-20 15:37:00,67.6,39.7,29.88,WSW,248,4.6,4.6,36,0.00,-RA,,0.00,WeatherDisplay:10.37,2013-10-20 19:37:00,
2013-10-20 15:42:00,67.6,40.4,29.88,West,270,6.9,6.9,37,0.00,-RA,,0.00,WeatherDisplay:10.37,2013-10-20 19:42:00,
2013-10-20 15:47:00,67.8,40.6,29.88,NW,315,5.8,5.8,37,0.00,-RA,,0.00,WeatherDisplay:10.37,2013-10-20 19:47:00,
2013-10-20 15:52:00,67.5,40.3,29.88,WSW,248,3.5,3.5,37,0.00,-RA,,0.00,WeatherDisplay:10.37,2013-10-20 19:52:00,
2013-10-20 15:57:00,67.6,39.7,29.88,WSW,248,5.8,5.8,36,0.00,-RA,,0.00,WeatherDisplay:10.37,2013-10-20 19:57:00,
2013-10-20 16:02:00,67.8,39.9,29.88,West,270,3.5,3.5,36,0.00,-RA,,0.00,WeatherDisplay:10.37,2013-10-20 20:02:00,
2013-10-20 16:07:00,67.1,38.5,29.88,NW,315,6.9,6.9,35,0.00,-RA,,0.00,WeatherDisplay:10.37,2013-10-20 20:07:00,
2013-10-20 16:12:00,66.7,38.2,29.89,SW,225,3.5,3.5,35,0.00,-RA,,0.00,WeatherDisplay:10.37,2013-10-20 20:12:00,
2013-10-20 16:17:00,66.6,38.8,29.89,NNW,338,4.6,4.6,36,0.00,-RA,,0.00,WeatherDisplay:10.37,2013-10-20 20:17:00,
2013-10-20 16:22:00,66.4,38.6,29.89,WSW,248,2.3,2.9,36,0.00,-RA,,0.00,WeatherDisplay:10.37,2013-10-20 20:22:00,
2013-10-20 16:27:00,66.0,38.3,29.89,NW,315,11.5,11.5,36,0.00,-RA,,0.00,WeatherDisplay:10.37,2013-10-20 20:27:00,
2013-10-20 16:32:00,65.7,38.0,29.89,NW,315,5.8,5.8,36,0.00,-RA,,0.00,WeatherDisplay:10.37,2013-10-20 20:32:00,
2013-10-20 16:37:00,65.5,37.8,29.89,NW,315,3.5,3.7,36,0.00,-RA,,0.00,WeatherDisplay:10.37,2013-10-20 20:37:00,
2013-10-20 16:42:00,65.3,37.6,29.89,NW,315,3.5,3.5,36,0.00,-RA,,0.00,WeatherDisplay:10.37,2013-10-20 20:42:00,
2013-10-20 16:47:00,65.3,38.3,29.89,WNW,292,5.8,5.8,37,0.00,-RA,,0.00,WeatherDisplay:10.37,2013-10-20 20:47:00,
2013-10-20 16:52:00,65.1,38.2,29.89,West,270,2.5,2.5,37,0.00,-RA,,0.00,WeatherDisplay:10.37,2013-10-20 20:52:00,
2013-10-20 16:57:00,65.1,38.2,29.89,WSW,248,3.5,3.5,37,0.00,-RA,,0.00,WeatherDisplay:10.37,2013-10-20 20:57:00,
2013-10-20 17:02:00,65.1,38.9,29.89,West,270,2.3,2.3,38,0.00,-RA,,0.00,WeatherDisplay:10.37,2013-10-20 21:02:00,
2013-10-20 17:07:00,64.8,37.9,29.89,West,270,3.9,3.9,37,0.00,-RA,,0.00,WeatherDisplay:10.37,2013-10-20 21:07:00,
2013-10-20 17:12:00,64.8,38.5,29.90,WNW,292,2.3,2.3,38,0.00,-RA,,0.00,WeatherDisplay:10.37,2013-10-20 21:12:00,
2013-10-20 17:17:00,64.9,38.7,29.90,NW,315,4.6,4.6,38,0.00,-RA,,0.00,WeatherDisplay:10.37,2013-10-20 21:17:00,
2013-10-20 17:22:00,64.6,38.4,29.90,NW,315,4.6,4.6,38,0.00,-RA,,0.00,WeatherDisplay:10.37,2013-10-20 21:22:00,
2013-10-20 17:27:00,64.4,38.2,29.90,WSW,248,4.6,4.6,38,0.00,-RA,,0.00,WeatherDisplay:10.37,2013-10-20 21:27:00,
2013-10-20 17:32:00,64.6,39.0,29.90,NW,315,3.8,3.8,39,0.00,-RA,,0.00,WeatherDisplay:10.37,2013-10-20 21:32:00,
2013-10-20 17:37:00,64.0,37.9,29.90,WSW,248,5.8,5.8,38,0.00,-RA,,0.00,WeatherDisplay:10.37,2013-10-20 21:37:00,
2013-10-20 17:42:00,63.9,38.4,29.90,WNW,292,4.8,4.8,39,0.00,-RA,,0.00,WeatherDisplay:10.37,2013-10-20 21:42:00,
2013-10-20 17:47:00,63.9,38.4,29.90,NW,315,4.6,4.6,39,0.00,-RA,,0.00,WeatherDisplay:10.37,2013-10-20 21:47:00,
2013-10-20 17:52:00,63.5,38.7,29.91,West,270,3.5,3.5,40,0.00,-RA,,0.00,WeatherDisplay:10.37,2013-10-20 21:52:00,
2013-10-20 17:57:00,63.1,38.4,29.91,NW,315,4.6,4.6,40,0.00,-RA,,0.00,WeatherDisplay:10.37,2013-10-20 21:57:00,
2013-10-20 18:02:00,63.1,39.0,29.91,NW,315,2.3,2.8,41,0.00,-RA,,0.00,WeatherDisplay:10.37,2013-10-20 22:02:00,
2013-10-20 18:07:00,62.6,38.6,29.91,NW,315,4.6,4.6,41,0.00,-RA,,0.00,WeatherDisplay:10.37,2013-10-20 22:07:00,
2013-10-20 18:12:00,62.4,38.4,29.92,WSW,248,2.5,2.5,41,0.00,-RA,,0.00,WeatherDisplay:10.37,2013-10-20 22:12:00,
2013-10-20 18:17:00,62.2,38.8,29.92,WNW,292,3.5,3.5,42,0.00,-RA,,0.00,WeatherDisplay:10.37,2013-10-20 22:17:00,
2013-10-20 18:22:00,62.1,39.3,29.92,West,270,2.9,2.9,43,0.00,-RA,,0.00,WeatherDisplay:10.37,2013-10-20 22:22:00,
2013-10-20 18:27:00,61.7,39.0,29.92,WNW,292,1.3,1.3,43,0.00,-RA,,0.00,WeatherDisplay:10.37,2013-10-20 22:27:00,
2013-10-20 18:32:00,61.5,39.4,29.94,West,270,0.0,0.8,44,0.00,-RA,,0.00,WeatherDisplay:10.37,2013-10-20 22:32:00,
2013-10-20 18:37:00,61.3,39.2,29.94,WNW,292,2.3,2.3,44,0.00,-RA,,0.00,WeatherDisplay:10.37,2013-10-20 22:37:00,
2013-10-20 18:42:00,61.3,39.8,29.94,WNW,292,1.4,1.4,45,0.00,-RA,,0.00,WeatherDisplay:10.37,2013-10-20 22:42:00,
2013-10-20 18:47:00,60.8,39.9,29.94,West,270,1.2,1.2,46,0.00,-RA,,0.00,WeatherDisplay:10.37,2013-10-20 22:47:00,
2013-10-20 18:52:00,60.6,39.1,29.94,NW,315,2.0,2.0,45,0.00,-RA,,0.00,WeatherDisplay:10.37,2013-10-20 22:52:00,
2013-10-20 18:57:00,60.6,39.7,29.94,NW,315,2.3,2.3,46,0.00,-RA,,0.00,WeatherDisplay:10.37,2013-10-20 22:57:00,
2013-10-20 19:02:00,60.3,39.4,29.94,NNW,338,2.4,2.4,46,0.00,-RA,,0.00,WeatherDisplay:10.37,2013-10-20 23:02:00,
2013-10-20 19:07:00,60.1,39.2,29.94,West,270,2.3,2.3,46,0.00,-RA,,0.00,WeatherDisplay:10.37,2013-10-20 23:07:00,
2013-10-20 19:12:00,59.9,39.1,29.94,WSW,248,2.7,2.7,46,0.00,-RA,,0.00,WeatherDisplay:10.37,2013-10-20 23:12:00,
2013-10-20 19:17:00,59.9,39.1,29.94,West,270,2.3,2.3,46,0.00,-RA,,0.00,WeatherDisplay:10.37,2013-10-20 23:17:00,
2013-10-20 19:22:00,59.9,39.1,29.94,NW,315,2.3,2.3,46,0.00,-RA,,0.00,WeatherDisplay:10.37,2013-10-20 23:22:00,
2013-10-20 19:27:00,59.5,39.3,29.94,West,270,2.4,2.4,47,0.00,-RA,,0.00,WeatherDisplay:10.37,2013-10-20 23:27:00,
2013-10-20 19:32:00,59.4,39.1,29.96,NW,315,1.5,1.5,47,0.00,-RA,,0.00,WeatherDisplay:10.37,2013-10-20 23:32:00,
2013-10-20 19:38:00,59.4,39.1,29.96,WNW,292,1.6,1.6,47,0.00,-RA,,0.00,WeatherDisplay:10.37,2013-10-20 23:38:00,
2013-10-20 19:43:00,59.2,38.9,29.96,NW,315,1.4,1.4,47,0.00,-RA,,0.00,WeatherDisplay:10.37,2013-10-20 23:43:00,
2013-10-20 19:48:00,59.0,39.3,29.96,WNW,292,1.2,1.3,48,0.00,-RA,,0.00,WeatherDisplay:10.37,2013-10-20 23:48:00,
2013-10-20 19:53:00,58.8,39.2,29.96,WNW,292,1.2,1.2,48,0.00,-RA,,0.00,WeatherDisplay:10.37,2013-10-20 23:53:00,
2013-10-20 19:58:00,58.6,39.5,29.96,WNW,292,0.0,0.6,49,0.00,-RA,,0.00,WeatherDisplay:10.37,2013-10-20 23:58:00,
2013-10-20 20:03:00,58.3,39.2,29.96,NW,315,0.0,0.3,49,0.00,-RA,,0.00,WeatherDisplay:10.37,2013-10-21 00:03:00,
2013-10-20 20:08:00,58.1,39.5,29.96,NW,315,0.0,0.1,50,0.00,-RA,,0.00,WeatherDisplay:10.37,2013-10-21 00:08:00,
2013-10-20 20:13:00,57.9,39.4,29.96,West,270,0.0,0.0,50,0.00,-RA,,0.00,WeatherDisplay:10.37,2013-10-21 00:13:00,
2013-10-20 20:18:00,57.7,39.7,29.96,WSW,248,0.0,0.0,51,0.00,-RA,,0.00,WeatherDisplay:10.37,2013-10-21 00:18:00,
2013-10-20 20:23:00,57.2,39.7,29.96,WNW,292,1.3,1.3,52,0.00,-RA,,0.00,WeatherDisplay:10.37,2013-10-21 00:23:00,
2013-10-20 20:28:00,57.0,39.6,29.96,NW,315,1.2,1.2,52,0.00,-RA,,0.00,WeatherDisplay:10.37,2013-10-21 00:28:00,
2013-10-20 20:33:00,56.8,39.4,29.97,WNW,292,1.2,1.2,52,0.00,-RA,,0.00,WeatherDisplay:10.37,2013-10-21 00:33:00,
2013-10-20 20:38:00,56.5,39.5,29.97,NW,315,0.0,0.1,53,0.00,-RA,,0.00,WeatherDisplay:10.37,2013-10-21 00:38:00,
2013-10-20 20:43:00,56.5,39.5,29.97,West,270,0.0,0.0,53,0.00,-RA,,0.00,WeatherDisplay:10.37,2013-10-21 00:43:00,
2013-10-20 20:48:00,56.3,39.9,29.97,SW,225,0.0,0.0,54,0.00,-RA,,0.00,WeatherDisplay:10.37,2013-10-21 00:48:00,
2013-10-20 20:53:00,55.8,39.4,29.98,SW,225,0.0,0.0,54,0.00,-RA,,0.00,WeatherDisplay:10.37,2013-10-21 00:53:00,
2013-10-20 20:58:00,55.6,39.7,29.98,South,180,0.0,0.0,55,0.00,-RA,,0.00,WeatherDisplay:10.37,2013-10-21 00:58:00,
2013-10-20 21:03:00,55.2,39.3,29.98,South,180,0.0,0.0,55,0.00,-RA,,0.00,WeatherDisplay:10.37,2013-10-21 01:03:00,
2013-10-20 21:08:00,55.0,39.2,29.98,East,90,2.3,2.3,55,0.00,-RA,,0.00,WeatherDisplay:10.37,2013-10-21 01:08:00,
2013-10-20 21:13:00,54.9,39.9,29.98,West,270,0.0,0.3,57,0.00,-RA,,0.00,WeatherDisplay:10.37,2013-10-21 01:13:00,
2013-10-20 21:18:00,54.5,39.6,29.98,NW,315,0.0,0.1,57,0.00,-RA,,0.00,WeatherDisplay:10.37,2013-10-21 01:18:00,
2013-10-20 21:23:00,54.3,39.4,29.98,WSW,248,0.0,0.0,57,0.00,-RA,,0.00,WeatherDisplay:10.37,2013-10-21 01:23:00,
2013-10-20 21:28:00,54.1,39.7,29.98,WSW,248,0.0,0.0,58,0.00,-RA,,0.00,WeatherDisplay:10.37,2013-10-21 01:28:00,
2013-10-20 21:33:00,54.1,39.7,29.99,WSW,248,0.0,0.0,58,0.00,-RA,,0.00,WeatherDisplay:10.37,2013-10-21 01:33:00,
2013-10-20 21:38:00,53.6,39.6,29.99,South,180,0.0,0.0,59,0.00,-RA,,0.00,WeatherDisplay:10.37,2013-10-21 01:38:00,
2013-10-20 21:43:00,53.4,39.4,29.99,South,180,0.0,0.0,59,0.00,-RA,,0.00,WeatherDisplay:10.37,2013-10-21 01:43:00,
2013-10-20 21:48:00,53.4,39.9,29.99,South,180,0.0,0.0,60,0.00,-RA,,0.00,WeatherDisplay:10.37,2013-10-21 01:48:00,
2013-10-20 21:53:00,53.2,39.7,30.00,WSW,248,0.0,0.0,60,0.00,-RA,,0.00,WeatherDisplay:10.37,2013-10-21 01:53:00,
2013-10-20 21:58:00,52.9,39.8,30.00,WSW,248,0.0,0.0,61,0.00,-RA,,0.00,WeatherDisplay:10.37,2013-10-21 01:58:00,
2013-10-20 22:03:00,52.9,39.8,30.00,WSW,248,0.0,0.0,61,0.00,-RA,,0.00,WeatherDisplay:10.37,2013-10-21 02:03:00,
2013-10-20 22:08:00,52.5,39.9,30.00,WSW,248,0.0,0.0,62,0.00,-RA,,0.00,WeatherDisplay:10.37,2013-10-21 02:08:00,
2013-10-20 22:13:00,52.3,39.7,30.00,SSW,202,0.0,0.0,62,0.00,-RA,,0.00,WeatherDisplay:10.37,2013-10-21 02:13:00,
2013-10-20 22:18:00,52.3,40.1,30.00,SSW,202,0.0,0.0,63,0.00,-RA,,0.00,WeatherDisplay:10.37,2013-10-21 02:18:00,
2013-10-20 22:23:00,52.2,39.9,30.00,SW,225,1.2,1.2,63,0.00,-RA,,0.00,WeatherDisplay:10.37,2013-10-21 02:23:00,
2013-10-20 22:28:00,53.6,39.6,29.99,North,0,0.0,0.0,59,0.00,-RA,,0.00,WeatherDisplay:10.37,2013-10-21 02:28:00,
2013-10-20 22:33:00,53.6,39.6,29.99,North,0,0.0,0.0,59,0.00,-RA,,0.00,WeatherDisplay:10.37,2013-10-21 02:33:00,
2013-10-20 22:38:00,53.6,39.6,29.99,North,0,0.0,0.0,59,0.00,-RA,,0.00,WeatherDisplay:10.37,2013-10-21 02:38:00,
2013-10-20 22:43:00,53.6,39.6,29.99,North,0,0.0,0.0,59,0.00,-RA,,0.00,WeatherDisplay:10.37,2013-10-21 02:43:00,
2013-10-20 22:48:00,53.6,39.6,29.99,North,0,0.0,0.0,59,0.00,-RA,,0.00,WeatherDisplay:10.37,2013-10-21 02:48:00,
2013-10-20 22:53:00,51.6,39.8,30.00,NNW,338,0.0,0.0,64,0.00,-RA,,0.00,WeatherDisplay:10.37,2013-10-21 02:53:00,
2013-10-20 22:58:00,51.4,40.1,30.00,WNW,292,0.0,0.0,65,0.00,-RA,,0.00,WeatherDisplay:10.37,2013-10-21 02:58:00,
2013-10-20 23:03:00,51.3,40.3,30.00,WNW,292,0.0,0.0,66,0.00,-RA,,0.00,WeatherDisplay:10.37,2013-10-21 03:03:00,
2013-10-20 23:08:00,50.9,39.9,30.00,WNW,292,0.0,0.0,66,0.00,-RA,,0.00,WeatherDisplay:10.37,2013-10-21 03:08:00,
2013-10-20 23:13:00,50.7,39.8,30.00,WNW,292,0.0,0.0,66,0.00,-RA,,0.00,WeatherDisplay:10.37,2013-10-21 03:13:00,
2013-10-20 23:18:00,50.7,39.8,30.00,WNW,292,0.0,0.0,66,0.00,-RA,,0.00,WeatherDisplay:10.37,2013-10-21 03:18:00,
2013-10-20 23:23:00,50.5,40.0,30.00,West,270,0.0,0.0,67,0.00,-RA,,0.00,WeatherDisplay:10.37,2013-10-21 03:23:00,
2013-10-20 23:28:00,50.5,40.0,30.00,West,270,0.0,0.0,67,0.00,-RA,,0.00,WeatherDisplay:10.37,2013-10-21 03:28:00,
2013-10-20 23:33:00,50.2,39.6,30.00,West,270,0.0,0.0,67,0.00,-RA,,0.00,WeatherDisplay:10.37,2013-10-21 03:33:00,
2013-10-20 23:38:00,50.2,40.0,30.00,West,270,0.0,0.0,68,0.00,-RA,,0.00,WeatherDisplay:10.37,2013-10-21 03:38:00,
2013-10-20 23:43:00,50.0,39.8,30.00,West,270,0.0,0.0,68,0.00,-RA,,0.00,WeatherDisplay:10.37,2013-10-21 03:43:00,
2013-10-20 23:48:00,49.8,39.7,30.00,West,270,0.0,0.0,68,0.00,-RA,,0.00,WeatherDisplay:10.37,2013-10-21 03:48:00,
2013-10-20 23:53:00,49.8,39.7,30.01,West,270,0.0,0.0,68,0.00,-RA,,0.00,WeatherDisplay:10.37,2013-10-21 03:53:00,
2013-10-20 23:58:00,49.8,39.7,30.01,West,270,0.0,0.0,68,0.00,-RA,,0.00,WeatherDisplay:10.37,2013-10-21 03:58:00,